Time;durP1;ratioP1;P1;durP2;ratioP2;P2;SDS_P1;SDS_P2;PMS_P1;PMS_P2;Temp;Humidity;BMP_temperature;BMP_pressure;BME280_temperature;BME280_humidity;BME280_pressure;Samples;Min_cycle;Max_cycle;Signal;HPM_P1;HPM_P2
2022/01/20 00:00:43;;;;;;;18.10;9.44;;;;;;;;;;362532;146;858258;-63
2022/01/20 00:02:38;;;;;;;26.24;13.77;;;;;;;;;;363659;145;858404;-64
2022/01/20 00:03:42;;;;;;;26.51;12.95;;;;;;;;;;356029;148;864981;-62
2022/01/20 00:05:06;;;;;;;22.13;11.68;;;;;;;;;;361641;146;866499;-62
2022/01/20 00:06:55;;;;;;;23.98;11.69;;;;;;;;;;358846;145;857762;-63
2022/01/20 00:08:28;;;;;;;29.42;14.02;;;;;;;;;;361572;146;857259;-64
2022/01/20 00:26:23;;;;;;;20.52;10.88;;;;;;;;;;330231;159;859465;-63
2022/01/20 00:27:23;;;;;;;19.56;10.37;;;;;;;;;;336415;150;857526;-63
2022/01/20 00:28:46;;;;;;;24.85;12.53;;;;;;;;;;349762;150;857726;-62
2022/01/20 00:29:45;;;;;;;20.64;12.02;;;;;;;;;;345472;153;865672;-63
2022/01/20 00:30:46;;;;;;;26.55;12.42;;;;;;;;;;350951;149;857381;-62
2022/01/20 00:32:04;;;;;;;22.37;12.44;;;;;;;;;;353415;148;865188;-63
2022/01/20 00:32:58;;;;;;;23.41;11.19;;;;;;;;;;349102;148;859413;-62
2022/01/20 00:34:08;;;;;;;23.66;12.33;;;;;;;;;;353600;150;857365;-63
2022/01/20 00:37:15;;;;;;;25.86;11.97;;;;;;;;;;351251;148;865857;-63
2022/01/20 00:38:17;;;;;;;23.14;12.54;;;;;;;;;;362761;146;857278;-63
2022/01/20 00:39:19;;;;;;;23.37;12.15;;;;;;;;;;362901;147;857593;-64
2022/01/20 00:40:21;;;;;;;23.01;12.19;;;;;;;;;;363138;145;863550;-63
2022/01/20 00:41:22;;;;;;;24.19;12.13;;;;;;;;;;359657;146;857518;-63
2022/01/20 00:42:24;;;;;;;25.76;13.09;;;;;;;;;;353460;151;858122;-62
2022/01/20 00:43:26;;;;;;;23.84;12.46;;;;;;;;;;353705;151;863474;-63
2022/01/20 00:44:27;;;;;;;25.99;12.76;;;;;;;;;;350981;149;865755;-62
2022/01/20 00:45:29;;;;;;;25.47;13.52;;;;;;;;;;352965;149;865968;-63
2022/01/20 00:46:31;;;;;;;24.82;12.48;;;;;;;;;;352623;151;865565;-63
2022/01/20 00:47:33;;;;;;;28.14;13.41;;;;;;;;;;349785;151;865332;-63
2022/01/20 00:48:34;;;;;;;26.39;13.29;;;;;;;;;;350580;151;860099;-62
2022/01/20 00:49:36;;;;;;;23.65;12.31;;;;;;;;;;350957;149;857145;-62
2022/01/20 00:50:38;;;;;;;24.84;13.39;;;;;;;;;;352579;151;866537;-63
2022/01/20 00:51:39;;;;;;;27.42;12.84;;;;;;;;;;351831;151;857550;-63
2022/01/20 00:52:41;;;;;;;26.16;13.65;;;;;;;;;;352635;149;864859;-63
2022/01/20 00:53:44;;;;;;;24.23;13.16;;;;;;;;;;353317;151;864979;-63
2022/01/20 00:54:45;;;;;;;23.54;12.53;;;;;;;;;;351792;151;856755;-64
2022/01/20 00:55:47;;;;;;;23.51;11.91;;;;;;;;;;352377;149;856176;-63
2022/01/20 00:56:49;;;;;;;22.88;10.19;;;;;;;;;;351676;149;861931;-63
2022/01/20 00:57:50;;;;;;;22.48;12.10;;;;;;;;;;351495;151;863785;-64
2022/01/20 00:58:52;;;;;;;20.50;11.54;;;;;;;;;;353028;148;856390;-64
2022/01/20 00:59:53;;;;;;;22.14;12.44;;;;;;;;;;352316;151;856432;-63
2022/01/20 01:02:50;;;;;;;24.04;11.22;;;;;;;-1.21;71.39;99744.33;370498;142;880120;-63
2022/01/20 01:03:52;;;;;;;22.28;10.10;;;;;;;-1.28;71.28;99745.80;361701;146;857409;-63
2022/01/20 01:04:53;;;;;;;17.11;8.92;;;;;;;-1.28;71.18;99750.88;365107;147;857361;-63
2022/01/20 01:08:36;;;;;;;14.00;6.89;;;;;;;-1.14;70.95;99735.27;365202;147;857870;-62
2022/01/20 01:09:39;;;;;;;18.72;8.77;;;;;;;-1.06;70.58;99729.66;363330;145;857503;-63
2022/01/20 01:10:44;;;;;;;14.00;9.08;;;;;;;-1.02;70.47;99733.16;363536;145;859032;-63
2022/01/20 01:11:46;;;;;;;18.22;8.98;;;;;;;-0.99;70.56;99725.64;364971;146;857702;-63
2022/01/20 01:12:57;;;;;;;16.27;9.50;;;;;;;-0.89;70.25;99722.61;363900;147;857270;-63
2022/01/20 01:13:57;;;;;;;14.73;8.59;;;;;;;-0.80;70.04;99724.62;363798;145;857444;-63
2022/01/20 01:15:00;;;;;;;15.36;8.41;;;;;;;-0.69;69.77;99729.20;364609;145;857399;-63
2022/01/20 01:16:04;;;;;;;17.99;9.01;;;;;;;-0.61;69.49;99720.16;363141;145;857316;-63
2022/01/20 01:20:18;;;;;;;22.15;11.13;;;;;;;-0.45;68.92;99721.54;362219;146;858752;-64
2022/01/20 01:21:11;;;;;;;21.97;11.36;;;;;;;-0.44;68.81;99723.27;353340;146;857378;-63
2022/01/20 01:22:03;;;;;;;21.47;12.30;;;;;;;-0.46;68.64;99722.36;358617;148;860421;-63
2022/01/20 01:22:54;;;;;;;21.67;11.77;;;;;;;-0.48;68.75;99718.90;355599;148;859135;-63
2022/01/20 01:23:55;;;;;;;25.13;11.98;;;;;;;-0.49;68.76;99712.93;359212;147;857476;-63
2022/01/20 01:24:57;;;;;;;24.39;12.54;;;;;;;-0.51;68.74;99712.02;357536;148;857319;-63
2022/01/20 01:26:00;;;;;;;21.95;11.76;;;;;;;-0.52;68.79;99706.89;359233;149;864824;-63
2022/01/20 01:27:02;;;;;;;22.67;12.19;;;;;;;-0.55;68.87;99710.19;358320;148;857681;-63
2022/01/20 01:28:04;;;;;;;25.71;12.68;;;;;;;-0.76;69.32;99710.31;357177;148;857295;-63
2022/01/20 01:29:29;;;;;;;26.41;12.20;;;;;;;-0.75;69.48;99701.88;358960;148;860026;-63
2022/01/20 01:30:34;;;;;;;21.42;12.64;;;;;;;-0.75;69.49;99706.96;355400;148;858648;-62
2022/01/20 01:31:34;;;;;;;25.29;13.46;;;;;;;-0.77;69.58;99706.92;357892;148;858728;-63
2022/01/20 01:32:47;;;;;;;27.49;14.76;;;;;;;-0.79;69.64;99703.47;359272;148;857250;-63
2022/01/20 01:33:52;;;;;;;27.77;14.21;;;;;;;-0.81;69.77;99710.17;357644;148;857299;-63
2022/01/20 01:34:50;;;;;;;27.45;14.83;;;;;;;-0.85;69.75;99705.80;357265;149;860208;-63
2022/01/20 01:35:56;;;;;;;25.21;14.39;;;;;;;-0.94;70.04;99702.94;357884;147;866798;-63
2022/01/20 01:39:05;;;;;;;20.33;11.48;;;;;;;-1.00;70.33;99698.50;358843;148;860702;-63
2022/01/20 01:40:10;;;;;;;20.32;9.32;;;;;;;-1.01;70.41;99691.69;358547;148;859057;-63
2022/01/20 01:41:15;;;;;;;18.98;10.31;;;;;;;-0.99;70.39;99690.06;357710;148;856837;-62
2022/01/20 01:42:23;;;;;;;18.44;10.27;;;;;;;-0.94;70.40;99691.09;358069;148;858087;-63
2022/01/20 01:43:26;;;;;;;19.32;10.28;;;;;;;-0.87;70.28;99684.55;357207;150;858161;-63
2022/01/20 01:44:30;;;;;;;18.99;10.75;;;;;;;-0.78;70.10;99689.94;357701;148;857219;-62
2022/01/20 01:45:33;;;;;;;18.44;9.85;;;;;;;-0.70;69.70;99686.80;355592;148;865047;-62
2022/01/20 01:46:37;;;;;;;19.87;10.69;;;;;;;-0.63;69.54;99688.72;356570;148;866760;-63
2022/01/20 01:47:38;;;;;;;21.07;10.81;;;;;;;-0.55;69.45;99686.41;358671;147;857520;-63
2022/01/20 01:48:41;;;;;;;16.74;10.21;;;;;;;-0.48;69.27;99680.74;358787;147;857348;-64
2022/01/20 01:49:43;;;;;;;17.51;10.96;;;;;;;-0.41;69.04;99686.88;357058;148;865032;-63
2022/01/20 01:50:45;;;;;;;20.87;11.91;;;;;;;-0.38;68.86;99685.31;358450;148;857324;-62
2022/01/20 01:51:47;;;;;;;18.10;10.86;;;;;;;-0.36;68.55;99682.80;357807;148;857373;-62
2022/01/20 01:52:49;;;;;;;20.35;12.68;;;;;;;-0.37;68.62;99681.95;358218;149;865925;-62
2022/01/20 01:53:51;;;;;;;24.86;12.51;;;;;;;-0.38;68.66;99681.89;357120;149;857394;-62
2022/01/20 01:54:52;;;;;;;24.41;12.65;;;;;;;-0.41;68.59;99685.22;357867;147;857933;-62
2022/01/20 01:55:54;;;;;;;24.57;13.20;;;;;;;-0.42;68.72;99682.61;358314;148;857281;-62
2022/01/20 01:56:56;;;;;;;21.55;11.29;;;;;;;-0.55;68.84;99684.75;356175;147;857194;-62
2022/01/20 01:57:58;;;;;;;25.17;13.15;;;;;;;-0.59;69.00;99676.14;357650;148;857381;-62
2022/01/20 01:58:59;;;;;;;26.03;14.68;;;;;;;-0.60;69.13;99674.41;358639;147;857288;-62
2022/01/20 02:00:06;;;;;;;22.73;11.24;;;;;;;-0.66;69.23;99674.22;357291;148;857275;-63
2022/01/20 02:01:11;;;;;;;23.64;13.84;;;;;;;-0.69;69.36;99676.66;355184;148;857753;-63
2022/01/20 02:02:13;;;;;;;24.14;13.47;;;;;;;-0.73;69.42;99672.28;357791;148;857899;-63
2022/01/20 02:03:15;;;;;;;27.65;14.18;;;;;;;;;;352848;148;858799;-63
2022/01/20 02:04:20;;;;;;;23.81;13.57;;;;;;;;;;351920;151;857221;-63
2022/01/20 02:05:21;;;;;;;27.06;15.90;;;;;;;;;;350742;148;866388;-63
2022/01/20 02:06:48;;;;;;;25.05;13.06;;;;;;;;;;353257;148;857427;-64
2022/01/20 02:07:59;;;;;;;25.19;12.06;;;;;;;;;;350507;151;857271;-63
2022/01/20 02:08:41;;;;;;;28.25;15.79;;;;;;;;;;351824;148;860564;-63
2022/01/20 02:17:49;;;;;;;26.15;14.30;;;;;;;;;;351949;150;866338;-63
2022/01/20 02:19:35;;;;;;;24.35;13.34;;;;;;;;;;351592;148;859525;-63
2022/01/20 02:20:37;;;;;;;32.27;14.91;;;;;;;;;;351591;150;858747;-64
2022/01/20 02:21:46;;;;;;;21.51;10.96;;;;;;;;;;348441;151;857705;-62
2022/01/20 02:22:49;;;;;;;23.10;13.57;;;;;;;;;;346900;148;865349;-64
2022/01/20 02:23:50;;;;;;;25.90;14.02;;;;;;;;;;353983;150;859012;-64
2022/01/20 02:24:52;;;;;;;27.61;13.26;;;;;;;;;;352055;148;859549;-64
2022/01/20 02:25:53;;;;;;;26.83;13.41;;;;;;;;;;354226;148;865798;-62
2022/01/20 02:26:55;;;;;;;25.81;12.51;;;;;;;;;;352087;150;865443;-62
2022/01/20 02:27:57;;;;;;;26.46;14.31;;;;;;;;;;351133;148;857479;-62
2022/01/20 02:28:59;;;;;;;25.59;13.70;;;;;;;;;;352511;151;864967;-63
2022/01/20 02:30:00;;;;;;;24.95;12.53;;;;;;;;;;352662;148;857288;-63
2022/01/20 02:31:02;;;;;;;27.16;13.56;;;;;;;;;;352922;148;857302;-63
2022/01/20 02:32:04;;;;;;;29.54;14.17;;;;;;;;;;351529;151;865065;-63
2022/01/20 02:33:06;;;;;;;23.58;13.09;;;;;;;;;;353812;148;860590;-63
2022/01/20 02:34:09;;;;;;;21.45;12.45;;;;;;;;;;351593;150;857301;-63
2022/01/20 02:35:12;;;;;;;21.18;12.19;;;;;;;;;;353065;148;858592;-62
2022/01/20 02:36:17;;;;;;;23.41;13.16;;;;;;;;;;352032;148;859235;-62
2022/01/20 02:37:18;;;;;;;22.77;11.54;;;;;;;;;;353967;148;868420;-63
2022/01/20 02:38:27;;;;;;;25.82;13.61;;;;;;;;;;352835;150;858871;-62
2022/01/20 02:39:44;;;;;;;26.98;14.32;;;;;;;;;;352406;151;866736;-63
2022/01/20 02:44:49;;;;;;;24.92;12.05;;;;;;;;;;351660;150;859157;-63
2022/01/20 02:45:35;;;;;;;25.26;13.54;;;;;;;;;;351912;148;857673;-64
2022/01/20 02:46:37;;;;;;;28.91;15.25;;;;;;;;;;352683;148;857218;-63
2022/01/20 02:47:38;;;;;;;23.48;12.95;;;;;;;;;;353165;150;866247;-63
2022/01/20 02:48:40;;;;;;;25.44;13.04;;;;;;;;;;354069;150;859815;-63
2022/01/20 02:49:42;;;;;;;22.38;13.69;;;;;;;;;;354169;151;865256;-63
2022/01/20 02:50:43;;;;;;;21.85;12.61;;;;;;;;;;353091;148;864860;-63
2022/01/20 02:51:46;;;;;;;25.59;15.59;;;;;;;;;;353514;150;864563;-63
2022/01/20 02:52:47;;;;;;;26.77;14.82;;;;;;;;;;354522;151;856342;-63
2022/01/20 02:53:49;;;;;;;30.10;15.43;;;;;;;;;;354190;148;856062;-63
2022/01/20 02:54:51;;;;;;;24.54;14.57;;;;;;;;;;354427;150;863853;-63
2022/01/20 02:55:52;;;;;;;28.25;14.62;;;;;;;;;;351287;150;862820;-63
2022/01/20 02:56:54;;;;;;;27.69;14.89;;;;;;;;;;354073;151;856674;-64
2022/01/20 02:57:56;;;;;;;28.70;14.94;;;;;;;;;;353112;148;856092;-63
2022/01/20 02:58:57;;;;;;;27.58;13.11;;;;;;;;;;354271;148;856549;-63
2022/01/20 02:59:59;;;;;;;26.96;15.04;;;;;;;;;;354153;150;864428;-62
2022/01/20 03:02:50;;;;;;;28.78;15.18;;;;;;;-1.20;72.09;99591.08;370916;142;869517;-64
2022/01/20 03:03:52;;;;;;;21.81;12.52;;;;;;;-1.29;72.00;99581.49;360297;145;859530;-63
2022/01/20 03:04:54;;;;;;;22.32;11.85;;;;;;;-1.30;71.91;99579.77;362860;146;857386;-63
2022/01/20 03:05:56;;;;;;;23.95;11.07;;;;;;;-1.28;71.82;99584.88;365533;146;857373;-63
2022/01/20 03:06:58;;;;;;;23.64;11.31;;;;;;;-1.25;71.68;99579.91;362490;145;857377;-63
2022/01/20 03:08:00;;;;;;;20.45;11.39;;;;;;;-1.22;71.55;99587.63;360457;145;858694;-63
2022/01/20 03:09:02;;;;;;;18.82;10.50;;;;;;;-1.19;71.35;99580.98;364472;145;857605;-63
2022/01/20 03:10:05;;;;;;;20.90;10.98;;;;;;;-1.13;71.20;99582.01;364926;145;857246;-63
2022/01/20 03:11:06;;;;;;;17.84;10.42;;;;;;;;;;361091;145;857126;-62
2022/01/20 03:12:08;;;;;;;16.94;9.89;;;;;;;;;;363689;145;858109;-63
2022/01/20 03:13:10;;;;;;;22.14;10.26;;;;;;;;;;363590;146;865834;-63
2022/01/20 03:14:13;;;;;;;22.39;10.73;;;;;;;;;;363181;145;860273;-62
2022/01/20 03:15:15;;;;;;;19.49;11.59;;;;;;;;;;362866;145;857347;-63
2022/01/20 03:16:18;;;;;;;24.04;12.70;;;;;;;;;;364328;145;860660;-62
2022/01/20 03:17:19;;;;;;;21.13;12.49;;;;;;;;;;363607;146;858662;-62
2022/01/20 03:18:21;;;;;;;21.91;12.14;;;;;;;;;;363047;145;857077;-62
2022/01/20 03:19:22;;;;;;;21.13;12.21;;;;;;;;;;362732;145;864889;-62
2022/01/20 03:20:24;;;;;;;23.57;12.80;;;;;;;;;;362455;146;857767;-63
2022/01/20 03:21:27;;;;;;;23.22;13.30;;;;;;;;;;361817;145;857841;-62
2022/01/20 03:22:28;;;;;;;24.18;11.78;;;;;;;;;;362314;144;858927;-63
2022/01/20 03:23:30;;;;;;;24.53;12.39;;;;;;;;;;361588;145;864811;-62
2022/01/20 03:24:31;;;;;;;17.57;11.09;;;;;;;;;;355860;148;857280;-63
2022/01/20 03:25:33;;;;;;;20.80;12.35;;;;;;;;;;356825;147;866571;-63
2022/01/20 03:26:35;;;;;;;24.31;13.17;;;;;;;;;;363268;145;859050;-62
2022/01/20 03:27:38;;;;;;;21.78;11.45;;;;;;;;;;364462;145;858991;-63
2022/01/20 03:28:39;;;;;;;24.38;13.91;;;;;;;;;;362268;146;858899;-63
2022/01/20 03:29:41;;;;;;;28.39;14.54;;;;;;;;;;361612;145;859862;-63
2022/01/20 03:30:43;;;;;;;22.51;12.09;;;;;;;;;;362328;145;867401;-62
2022/01/20 03:31:44;;;;;;;26.29;13.23;;;;;;;;;;363409;145;864908;-63
2022/01/20 03:32:46;;;;;;;24.59;12.58;;;;;;;;;;363415;145;858707;-61
2022/01/20 03:33:47;;;;;;;26.02;14.21;;;;;;;;;;363972;145;865363;-63
2022/01/20 03:34:49;;;;;;;25.08;14.08;;;;;;;;;;363967;145;861881;-63
2022/01/20 03:35:53;;;;;;;26.66;13.87;;;;;;;;;;363934;144;857658;-63
2022/01/20 03:36:54;;;;;;;24.88;13.60;;;;;;;;;;362005;145;865016;-63
2022/01/20 03:37:55;;;;;;;21.29;12.06;;;;;;;;;;364203;146;860812;-62
2022/01/20 03:38:57;;;;;;;20.96;12.05;;;;;;;;;;359812;145;864801;-62
2022/01/20 03:39:59;;;;;;;27.74;13.99;;;;;;;;;;361001;145;866644;-63
2022/01/20 03:41:00;;;;;;;26.50;12.78;;;;;;;;;;360736;145;859243;-64
2022/01/20 03:42:02;;;;;;;25.12;14.06;;;;;;;;;;362354;145;859013;-64
2022/01/20 03:43:04;;;;;;;25.72;13.95;;;;;;;;;;362964;145;859987;-64
2022/01/20 03:44:06;;;;;;;28.64;14.00;;;;;;;;;;363019;145;856380;-64
2022/01/20 03:45:08;;;;;;;21.17;12.32;;;;;;;;;;363007;145;863396;-63
2022/01/20 03:46:12;;;;;;;25.52;15.59;;;;;;;;;;363138;145;861878;-64
2022/01/20 03:47:14;;;;;;;23.28;12.20;;;;;;;;;;362060;145;858750;-64
2022/01/20 03:48:16;;;;;;;27.05;13.68;;;;;;;;;;361309;145;864793;-63
2022/01/20 03:51:57;;;;;;;26.20;13.56;;;;;;;;;;363450;145;857405;-62
2022/01/20 03:52:59;;;;;;;22.29;12.55;;;;;;;;;;362381;145;865737;-62
2022/01/20 03:54:01;;;;;;;20.19;11.27;;;;;;;;;;362718;145;866425;-62
2022/01/20 03:55:03;;;;;;;23.83;14.11;;;;;;;;;;362964;145;865410;-63
2022/01/20 03:56:05;;;;;;;25.74;14.59;;;;;;;;;;362656;145;857930;-64
2022/01/20 03:57:07;;;;;;;25.03;14.47;;;;;;;;;;361168;145;857246;-64
2022/01/20 03:58:08;;;;;;;25.25;13.61;;;;;;;;;;362282;145;857253;-64
2022/01/20 03:59:10;;;;;;;26.36;14.01;;;;;;;;;;362408;145;864902;-64
2022/01/20 04:00:13;;;;;;;28.03;15.21;;;;;;;;;;364521;145;857254;-64
2022/01/20 04:01:17;;;;;;;26.60;14.39;;;;;;;;;;361098;145;859075;-62
2022/01/20 04:02:19;;;;;;;25.54;14.15;;;;;;;;;;360982;145;857792;-63
2022/01/20 04:03:21;;;;;;;26.92;14.98;;;;;;;;;;363323;145;858932;-62
2022/01/20 04:04:22;;;;;;;28.13;14.80;;;;;;;;;;362370;146;857213;-63
2022/01/20 04:05:24;;;;;;;25.02;14.20;;;;;;;;;;363132;145;865067;-63
2022/01/20 04:06:28;;;;;;;25.68;13.74;;;;;;;;;;362795;146;865766;-63
2022/01/20 04:07:29;;;;;;;28.63;14.85;;;;;;;;;;365130;145;857209;-63
2022/01/20 04:08:33;;;;;;;23.95;12.28;;;;;;;;;;362425;145;857323;-63
2022/01/20 04:09:34;;;;;;;28.87;13.27;;;;;;;;;;360356;145;866615;-63
2022/01/20 04:10:36;;;;;;;22.96;12.94;;;;;;;;;;361797;147;866480;-63
2022/01/20 04:11:38;;;;;;;31.79;14.11;;;;;;;;;;360464;145;864901;-64
2022/01/20 04:12:40;;;;;;;26.40;14.34;;;;;;;;;;361488;145;865502;-63
2022/01/20 04:13:41;;;;;;;23.28;12.14;;;;;;;;;;348593;151;857258;-63
2022/01/20 04:14:47;;;;;;;27.94;14.85;;;;;;;;;;354078;149;857249;-64
2022/01/20 04:15:48;;;;;;;29.99;14.56;;;;;;;;;;352409;150;859884;-64
2022/01/20 04:17:03;;;;;;;27.51;13.13;;;;;;;;;;349286;151;859390;-64
2022/01/20 04:17:56;;;;;;;24.97;15.96;;;;;;;;;;355422;148;865066;-63
2022/01/20 04:18:59;;;;;;;28.06;17.11;;;;;;;;;;356280;147;865153;-64
2022/01/20 04:20:02;;;;;;;32.96;15.91;;;;;;;;;;355748;149;859081;-63
2022/01/20 04:21:04;;;;;;;27.44;15.09;;;;;;;;;;345913;153;858217;-63
2022/01/20 04:22:05;;;;;;;25.71;14.14;;;;;;;;;;352437;149;858739;-64
2022/01/20 04:23:07;;;;;;;32.06;14.98;;;;;;;;;;351732;151;865077;-63
2022/01/20 04:24:09;;;;;;;23.54;12.12;;;;;;;;;;355447;148;857230;-63
2022/01/20 04:25:11;;;;;;;22.30;12.87;;;;;;;;;;353542;149;865764;-63
2022/01/20 04:26:13;;;;;;;21.38;11.59;;;;;;;;;;355566;148;858349;-64
2022/01/20 04:27:14;;;;;;;27.81;15.14;;;;;;;;;;356192;149;857243;-63
2022/01/20 04:28:16;;;;;;;25.86;12.55;;;;;;;;;;355236;148;865002;-63
2022/01/20 04:29:18;;;;;;;19.39;10.72;;;;;;;;;;349868;150;865026;-63
2022/01/20 04:30:19;;;;;;;24.99;13.77;;;;;;;;;;351069;150;857667;-64
2022/01/20 04:31:21;;;;;;;28.59;13.22;;;;;;;;;;351205;150;857570;-64
2022/01/20 04:32:24;;;;;;;27.87;16.13;;;;;;;;;;350676;149;865392;-64
2022/01/20 04:33:25;;;;;;;23.75;12.37;;;;;;;;;;351437;150;857298;-63
2022/01/20 04:34:27;;;;;;;31.06;16.54;;;;;;;;;;353258;151;857351;-63
2022/01/20 04:35:28;;;;;;;27.71;14.86;;;;;;;;;;352613;148;866681;-63
2022/01/20 04:36:32;;;;;;;31.33;16.51;;;;;;;;;;351066;150;866775;-63
2022/01/20 04:37:34;;;;;;;27.98;15.85;;;;;;;;;;354969;148;857700;-63
2022/01/20 04:38:36;;;;;;;28.27;15.88;;;;;;;;;;352710;150;866360;-63
2022/01/20 04:39:44;;;;;;;33.14;17.26;;;;;;;;;;352283;149;857350;-63
2022/01/20 04:40:42;;;;;;;25.48;13.60;;;;;;;;;;353662;149;864447;-63
2022/01/20 04:41:44;;;;;;;25.78;14.10;;;;;;;;;;351732;151;864076;-63
2022/01/20 04:42:48;;;;;;;23.50;12.41;;;;;;;;;;350686;150;857362;-63
2022/01/20 04:43:49;;;;;;;31.23;15.58;;;;;;;;;;350918;150;857332;-63
2022/01/20 04:44:59;;;;;;;34.09;17.09;;;;;;;;;;352866;148;857772;-63
2022/01/20 04:47:13;;;;;;;26.19;14.61;;;;;;;;;;329027;162;859773;-63
2022/01/20 04:57:18;;;;;;;23.52;12.87;;;;;;;;;;341984;153;858288;-63
2022/01/20 04:58:20;;;;;;;27.38;14.74;;;;;;;;;;361770;145;857241;-64
2022/01/20 04:59:21;;;;;;;26.78;13.07;;;;;;;;;;362495;148;858515;-63
2022/01/20 05:00:23;;;;;;;23.75;13.35;;;;;;;;;;362233;144;864981;-64
2022/01/20 05:01:25;;;;;;;27.35;15.25;;;;;;;;;;364508;144;858770;-63
2022/01/20 05:02:28;;;;;;;19.58;10.09;;;;;;;;;;362988;145;857320;-62
2022/01/20 05:03:30;;;;;;;23.51;11.40;;;;;;;;;;359572;144;865002;-63
2022/01/20 05:04:31;;;;;;;27.57;14.42;;;;;;;;;;359690;145;859057;-63
2022/01/20 05:05:33;;;;;;;22.45;13.76;;;;;;;;;;361609;145;864994;-63
2022/01/20 05:06:38;;;;;;;22.64;10.59;;;;;;;;;;360112;147;861449;-63
2022/01/20 05:07:38;;;;;;;25.96;15.51;;;;;;;;;;359131;145;866221;-63
2022/01/20 05:08:40;;;;;;;23.86;13.34;;;;;;;;;;361338;145;857208;-63
2022/01/20 05:09:41;;;;;;;21.07;11.10;;;;;;;;;;358980;147;864834;-63
2022/01/20 05:10:43;;;;;;;25.06;12.71;;;;;;;;;;361022;145;865798;-63
2022/01/20 05:11:49;;;;;;;25.21;12.98;;;;;;;;;;360084;145;863857;-63
2022/01/20 05:13:50;;;;;;;21.50;11.51;;;;;;;;;;363708;146;857346;-63
2022/01/20 05:14:51;;;;;;;23.78;12.01;;;;;;;;;;363112;145;865647;-63
2022/01/20 05:15:53;;;;;;;22.14;13.39;;;;;;;;;;363815;145;864907;-63
2022/01/20 05:16:55;;;;;;;20.53;10.36;;;;;;;;;;364639;145;866487;-63
2022/01/20 05:17:58;;;;;;;20.03;11.69;;;;;;;;;;360864;145;865757;-63
2022/01/20 05:18:59;;;;;;;29.83;13.23;;;;;;;;;;359569;145;858147;-63
2022/01/20 05:20:01;;;;;;;22.51;11.93;;;;;;;;;;362738;147;858652;-62
2022/01/20 05:21:02;;;;;;;21.86;12.95;;;;;;;;;;362418;145;864728;-62
2022/01/20 05:22:04;;;;;;;27.17;14.55;;;;;;;;;;360389;145;862436;-62
2022/01/20 05:23:05;;;;;;;24.76;11.75;;;;;;;;;;362834;145;865780;-63
2022/01/20 05:24:07;;;;;;;23.84;13.71;;;;;;;;;;359778;146;859425;-63
2022/01/20 05:25:09;;;;;;;28.74;14.56;;;;;;;;;;360692;145;864794;-63
2022/01/20 05:26:13;;;;;;;28.88;13.63;;;;;;;;;;362952;145;857499;-63
2022/01/20 05:27:14;;;;;;;25.96;13.21;;;;;;;;;;360173;145;857203;-63
2022/01/20 05:28:16;;;;;;;22.59;13.05;;;;;;;;;;359161;146;858962;-63
2022/01/20 05:29:18;;;;;;;24.93;14.49;;;;;;;;;;360832;145;857289;-63
2022/01/20 05:30:20;;;;;;;24.95;13.61;;;;;;;;;;365929;145;864815;-63
2022/01/20 05:31:22;;;;;;;18.64;10.11;;;;;;;;;;361014;146;857667;-63
2022/01/20 05:32:23;;;;;;;26.54;12.81;;;;;;;;;;361797;145;866714;-63
2022/01/20 05:33:25;;;;;;;22.14;12.67;;;;;;;;;;361096;145;864885;-63
2022/01/20 05:34:27;;;;;;;27.93;14.29;;;;;;;;;;358915;147;860051;-63
2022/01/20 05:35:28;;;;;;;22.97;12.41;;;;;;;;;;363244;146;857216;-64
2022/01/20 05:36:30;;;;;;;21.09;11.02;;;;;;;;;;360685;145;864393;-64
2022/01/20 05:37:33;;;;;;;30.91;19.48;;;;;;;;;;360279;147;865257;-63
2022/01/20 05:38:35;;;;;;;26.04;13.24;;;;;;;;;;361337;145;866710;-64
2022/01/20 05:39:36;;;;;;;27.29;13.09;;;;;;;;;;363412;145;857176;-63
2022/01/20 05:40:38;;;;;;;27.53;16.62;;;;;;;;;;363964;146;858953;-63
2022/01/20 05:41:40;;;;;;;24.01;13.18;;;;;;;;;;361127;145;864749;-63
2022/01/20 05:42:42;;;;;;;24.48;14.01;;;;;;;;;;360428;145;859483;-63
2022/01/20 05:43:43;;;;;;;28.56;14.23;;;;;;;;;;362890;145;859890;-63
2022/01/20 05:44:49;;;;;;;21.93;11.87;;;;;;;;;;363085;145;864935;-63
2022/01/20 05:45:49;;;;;;;24.63;11.74;;;;;;;;;;360161;146;857275;-64
2022/01/20 05:46:52;;;;;;;25.75;14.29;;;;;;;;;;359874;145;858732;-64
2022/01/20 05:48:01;;;;;;;27.32;14.89;;;;;;;;;;360145;145;857963;-64
2022/01/20 05:49:08;;;;;;;25.37;13.04;;;;;;;;;;360744;145;859060;-64
2022/01/20 05:50:01;;;;;;;18.92;10.81;;;;;;;;;;360450;145;857323;-64
2022/01/20 05:51:03;;;;;;;24.54;11.99;;;;;;;;;;361485;145;866758;-64
2022/01/20 05:52:05;;;;;;;27.27;12.65;;;;;;;;;;360367;145;865464;-64
2022/01/20 05:53:06;;;;;;;22.16;11.88;;;;;;;;;;360961;145;859448;-64
2022/01/20 05:54:08;;;;;;;22.44;12.49;;;;;;;;;;361167;145;864852;-63
2022/01/20 05:55:12;;;;;;;22.17;11.63;;;;;;;;;;361514;145;865906;-64
2022/01/20 05:56:15;;;;;;;20.13;11.54;;;;;;;;;;361407;145;857317;-63
2022/01/20 05:57:17;;;;;;;24.91;12.03;;;;;;;;;;362181;145;857715;-63
2022/01/20 05:58:23;;;;;;;23.16;10.27;;;;;;;;;;360538;145;857768;-63
2022/01/20 05:59:22;;;;;;;19.24;10.03;;;;;;;;;;364663;145;865211;-63
2022/01/20 06:00:25;;;;;;;25.69;11.93;;;;;;;;;;361445;146;864484;-64
2022/01/20 06:01:27;;;;;;;22.53;12.19;;;;;;;;;;362892;146;857709;-63
2022/01/20 06:03:35;;;;;;;23.19;13.64;;;;;;;;;;361057;145;865608;-62
2022/01/20 06:03:39;;;;;;;21.73;11.41;;;;;;;;;;359175;146;864952;-63
2022/01/20 06:04:41;;;;;;;19.28;10.48;;;;;;;;;;358531;146;860495;-63
2022/01/20 06:05:42;;;;;;;19.58;10.76;;;;;;;;;;360603;148;857673;-63
2022/01/20 06:06:44;;;;;;;18.10;10.35;;;;;;;;;;360944;146;858951;-63
2022/01/20 06:07:46;;;;;;;15.34;9.09;;;;;;;;;;359577;146;858622;-63
2022/01/20 06:08:48;;;;;;;18.55;10.07;;;;;;;;;;359486;147;867278;-63
2022/01/20 06:09:49;;;;;;;19.95;9.95;;;;;;;;;;359008;146;861810;-63
2022/01/20 06:10:51;;;;;;;17.83;9.80;;;;;;;;;;359194;145;857324;-63
2022/01/20 06:11:53;;;;;;;23.70;12.45;;;;;;;;;;360661;146;857345;-62
2022/01/20 06:12:55;;;;;;;22.05;12.19;;;;;;;;;;361309;146;865150;-63
2022/01/20 06:13:57;;;;;;;20.00;11.04;;;;;;;;;;361190;146;860535;-64
2022/01/20 06:14:58;;;;;;;28.07;12.48;;;;;;;;;;360567;146;863619;-64
2022/01/20 06:16:00;;;;;;;26.29;11.44;;;;;;;;;;363694;146;856226;-63
2022/01/20 06:17:02;;;;;;;21.23;11.52;;;;;;;;;;360611;146;863620;-63
2022/01/20 06:18:03;;;;;;;22.60;11.90;;;;;;;;;;359921;146;863758;-63
2022/01/20 06:19:05;;;;;;;23.69;10.78;;;;;;;;;;359546;146;863771;-63
2022/01/20 06:20:07;;;;;;;17.96;10.51;;;;;;;;;;359939;148;856516;-63
2022/01/20 06:21:09;;;;;;;21.50;11.89;;;;;;;;;;358390;146;856600;-63
2022/01/20 06:22:13;;;;;;;22.59;12.03;;;;;;;;;;360235;146;856667;-63
2022/01/20 06:23:15;;;;;;;24.71;12.77;;;;;;;;;;360478;145;864159;-63
2022/01/20 06:24:16;;;;;;;23.09;11.45;;;;;;;;;;360323;146;863664;-63
2022/01/20 06:25:18;;;;;;;24.86;11.99;;;;;;;;;;359677;146;863611;-64
2022/01/20 06:26:20;;;;;;;21.39;12.21;;;;;;;;;;363434;145;864970;-63
2022/01/20 06:27:21;;;;;;;22.85;12.37;;;;;;;;;;359211;145;855937;-63
2022/01/20 06:28:23;;;;;;;23.27;10.97;;;;;;;;;;358847;147;864219;-63
2022/01/20 06:29:25;;;;;;;19.06;9.71;;;;;;;;;;360793;146;856136;-64
2022/01/20 06:30:27;;;;;;;24.00;12.63;;;;;;;;;;362773;145;861303;-63
2022/01/20 06:31:29;;;;;;;24.78;12.06;;;;;;;;;;361301;149;856626;-64
2022/01/20 06:32:31;;;;;;;22.63;11.21;;;;;;;;;;359533;145;863647;-63
2022/01/20 06:33:32;;;;;;;24.34;12.58;;;;;;;;;;359032;145;856724;-63
2022/01/20 06:34:34;;;;;;;30.39;11.68;;;;;;;;;;360536;146;856429;-63
2022/01/20 06:35:36;;;;;;;21.13;10.74;;;;;;;;;;358799;147;863602;-62
2022/01/20 06:36:37;;;;;;;27.37;13.08;;;;;;;;;;360070;146;856049;-63
2022/01/20 06:37:39;;;;;;;23.75;11.37;;;;;;;;;;360195;148;859532;-63
2022/01/20 06:38:42;;;;;;;22.83;11.92;;;;;;;;;;358810;147;856832;-63
2022/01/20 06:39:43;;;;;;;21.83;11.65;;;;;;;;;;359563;146;863662;-63
2022/01/20 06:40:45;;;;;;;22.87;11.23;;;;;;;;;;359029;146;864152;-63
2022/01/20 06:41:47;;;;;;;21.56;10.90;;;;;;;;;;362241;146;856751;-63